Time,TemperatureF,DewpointF,PressureIn,WindDirection,WindDirectionDegrees,WindSpeedMPH,WindSpeedGustMPH,Humidity,HourlyPrecipIn,Conditions,Clouds,dailyrainin,SolarRadiationWatts/m^2,SoftwareType,DateUTC
2013-07-14 00:01:00,77.5,73.0,29.99,SE,132,0.0,3.0,86,0.00,,,0.19,0.0,meteohub,2013-07-14 04:01:00,
2013-07-14 00:04:00,77.4,72.5,29.99,South,170,0.0,3.0,85,0.00,,,0.19,0.0,meteohub,2013-07-14 04:04:00,
2013-07-14 00:09:00,77.4,72.5,29.99,South,169,0.0,7.0,85,0.00,,,0.00,0.0,meteohub,2013-07-14 04:09:00,
2013-07-14 00:14:00,77.2,72.3,29.99,South,170,0.0,7.0,85,0.00,,,0.00,0.0,meteohub,2013-07-14 04:14:00,
2013-07-14 00:19:00,77.0,72.1,29.99,South,170,0.0,4.0,85,0.00,,,0.00,0.0,meteohub,2013-07-14 04:19:00,
2013-07-14 00:24:00,76.6,72.1,29.99,South,169,0.0,1.0,86,0.00,,,0.00,0.0,meteohub,2013-07-14 04:24:00,
2013-07-14 00:29:00,76.5,72.0,29.99,South,170,0.0,0.0,86,0.00,,,0.00,0.0,meteohub,2013-07-14 04:29:00,
2013-07-14 00:34:00,76.3,72.1,29.99,South,170,0.0,0.0,87,0.00,,,0.00,0.0,meteohub,2013-07-14 04:34:00,
2013-07-14 00:39:00,75.9,72.1,29.99,South,170,0.0,0.0,88,0.00,,,0.00,0.0,meteohub,2013-07-14 04:39:00,
2013-07-14 00:44:00,75.6,71.8,29.99,South,170,0.0,0.0,88,0.00,,,0.00,0.0,meteohub,2013-07-14 04:44:00,
2013-07-14 00:49:00,75.2,71.8,29.99,South,170,0.0,0.0,89,0.00,,,0.00,0.0,meteohub,2013-07-14 04:49:00,
2013-07-14 00:54:00,75.0,72.0,29.99,South,170,0.0,0.0,90,0.00,,,0.00,0.0,meteohub,2013-07-14 04:54:00,
2013-07-14 00:59:00,74.7,71.6,29.99,South,169,0.0,0.0,90,0.00,,,0.00,0.0,meteohub,2013-07-14 04:59:00,
2013-07-14 01:04:00,74.5,71.4,29.99,South,170,0.0,0.0,90,0.00,,,0.00,0.0,meteohub,2013-07-14 05:04:00,
2013-07-14 01:09:00,74.1,71.2,29.99,South,170,0.0,0.0,91,0.00,,,0.00,0.0,meteohub,2013-07-14 05:09:00,
2013-07-14 01:14:00,73.9,71.1,29.99,South,170,0.0,0.0,91,0.00,,,0.00,0.0,meteohub,2013-07-14 05:14:00,
2013-07-14 01:19:00,73.9,71.4,29.99,South,169,0.0,0.0,92,0.00,,,0.00,0.0,meteohub,2013-07-14 05:19:00,
2013-07-14 01:24:00,73.8,71.6,29.99,South,170,0.0,0.0,93,0.00,,,0.00,0.0,meteohub,2013-07-14 05:24:00,
2013-07-14 01:29:00,73.6,71.8,29.98,South,169,0.0,0.0,94,0.00,,,0.00,0.0,meteohub,2013-07-14 05:29:00,
2013-07-14 01:34:00,73.4,71.6,29.99,South,169,0.0,0.0,94,0.00,,,0.00,0.0,meteohub,2013-07-14 05:34:00,
2013-07-14 01:39:00,73.2,71.4,29.99,South,170,0.0,0.0,94,0.00,,,0.00,0.0,meteohub,2013-07-14 05:39:00,
2013-07-14 01:44:00,73.2,71.4,29.99,South,170,0.0,0.0,94,0.00,,,0.00,0.0,meteohub,2013-07-14 05:44:00,
2013-07-14 01:49:00,73.2,71.8,29.98,South,169,0.0,0.0,95,0.00,,,0.00,0.0,meteohub,2013-07-14 05:49:00,
2013-07-14 01:54:00,73.0,71.6,29.99,South,170,0.0,0.0,95,0.00,,,0.00,0.0,meteohub,2013-07-14 05:54:00,
2013-07-14 01:59:00,72.9,71.4,29.99,South,170,0.0,0.0,95,0.00,,,0.00,0.0,meteohub,2013-07-14 05:59:00,
2013-07-14 02:04:00,72.9,71.4,29.99,South,169,0.0,0.0,95,0.00,,,0.00,0.0,meteohub,2013-07-14 06:04:00,
2013-07-14 02:09:00,72.9,71.4,29.99,South,170,0.0,0.0,95,0.00,,,0.00,0.0,meteohub,2013-07-14 06:09:00,
2013-07-14 02:14:00,72.9,71.4,29.98,South,170,0.0,0.0,95,0.00,,,0.00,0.0,meteohub,2013-07-14 06:14:00,
2013-07-14 02:19:00,72.9,71.6,29.98,South,169,0.0,0.0,96,0.00,,,0.00,0.0,meteohub,2013-07-14 06:19:00,
2013-07-14 02:24:00,72.7,71.2,29.98,South,170,0.0,0.0,95,0.00,,,0.00,0.0,meteohub,2013-07-14 06:24:00,
2013-07-14 02:29:00,72.3,71.1,29.98,South,170,0.0,0.0,96,0.00,,,0.00,0.0,meteohub,2013-07-14 06:29:00,
2013-07-14 02:34:00,72.3,71.1,29.98,South,170,0.0,0.0,96,0.00,,,0.00,0.0,meteohub,2013-07-14 06:34:00,
2013-07-14 02:39:00,72.1,70.9,29.98,South,169,0.0,0.0,96,0.00,,,0.00,0.0,meteohub,2013-07-14 06:39:00,
2013-07-14 02:44:00,72.1,70.9,29.98,South,170,0.0,0.0,96,0.00,,,0.00,0.0,meteohub,2013-07-14 06:44:00,
2013-07-14 02:49:00,72.1,70.9,29.98,South,169,0.0,0.0,96,0.00,,,0.00,0.0,meteohub,2013-07-14 06:49:00,
2013-07-14 02:54:00,72.0,70.7,29.98,South,170,0.0,0.0,96,0.00,,,0.00,0.0,meteohub,2013-07-14 06:54:00,
2013-07-14 02:59:00,72.0,70.7,29.98,South,169,0.0,0.0,96,0.00,,,0.00,0.0,meteohub,2013-07-14 06:59:00,
2013-07-14 03:04:00,72.0,70.7,29.97,South,170,0.0,0.0,96,0.00,,,0.00,0.0,meteohub,2013-07-14 07:04:00,
2013-07-14 03:09:00,72.0,70.7,29.97,South,169,0.0,0.0,96,0.00,,,0.00,0.0,meteohub,2013-07-14 07:09:00,
2013-07-14 03:14:00,71.8,70.5,29.97,South,170,0.0,0.0,96,0.00,,,0.00,0.0,meteohub,2013-07-14 07:14:00,
2013-07-14 03:20:00,71.8,70.5,29.97,South,169,0.0,0.0,96,0.00,,,0.00,0.0,meteohub,2013-07-14 07:20:00,
2013-07-14 03:25:00,71.8,70.5,29.97,South,170,0.0,0.0,96,0.00,,,0.00,0.0,meteohub,2013-07-14 07:25:00,
2013-07-14 03:30:00,71.8,70.5,29.97,South,170,0.0,0.0,96,0.00,,,0.00,0.0,meteohub,2013-07-14 07:30:00,
2013-07-14 03:35:00,71.8,70.9,29.97,South,169,0.0,0.0,97,0.00,,,0.00,0.0,meteohub,2013-07-14 07:35:00,
2013-07-14 03:40:00,71.8,70.9,29.97,South,170,0.0,0.0,97,0.00,,,0.00,0.0,meteohub,2013-07-14 07:40:00,
2013-07-14 03:45:00,71.8,70.9,29.97,South,170,0.0,0.0,97,0.00,,,0.00,0.0,meteohub,2013-07-14 07:45:00,
2013-07-14 03:50:00,71.8,70.9,29.97,South,170,0.0,0.0,97,0.00,,,0.00,0.0,meteohub,2013-07-14 07:50:00,
2013-07-14 03:55:00,71.8,70.9,29.97,South,170,0.0,0.0,97,0.00,,,0.00,0.0,meteohub,2013-07-14 07:55:00,
2013-07-14 04:00:00,71.6,70.7,29.97,South,170,0.0,0.0,97,0.00,,,0.00,0.0,meteohub,2013-07-14 08:00:00,
2013-07-14 04:05:00,71.8,70.9,29.96,South,170,0.0,0.0,97,0.00,,,0.00,0.0,meteohub,2013-07-14 08:05:00,
2013-07-14 04:10:00,71.8,70.9,29.96,South,169,0.0,0.0,97,0.00,,,0.00,0.0,meteohub,2013-07-14 08:10:00,
2013-07-14 04:15:00,71.8,70.9,29.96,South,170,0.0,0.0,97,0.00,,,0.00,0.0,meteohub,2013-07-14 08:15:00,
2013-07-14 04:20:00,71.8,70.9,29.96,South,170,0.0,0.0,97,0.00,,,0.00,0.0,meteohub,2013-07-14 08:20:00,
2013-07-14 04:25:00,71.6,70.7,29.96,South,170,0.0,0.0,97,0.00,,,0.00,0.0,meteohub,2013-07-14 08:25:00,
2013-07-14 04:30:00,71.6,70.7,29.97,South,169,0.0,0.0,97,0.00,,,0.00,0.0,meteohub,2013-07-14 08:30:00,
2013-07-14 04:35:00,71.6,70.7,29.97,South,170,0.0,0.0,97,0.00,,,0.00,0.0,meteohub,2013-07-14 08:35:00,
2013-07-14 04:40:00,71.6,70.7,29.97,South,170,0.0,0.0,97,0.00,,,0.00,0.0,meteohub,2013-07-14 08:40:00,
2013-07-14 04:45:00,71.6,70.7,29.97,South,169,0.0,0.0,97,0.00,,,0.00,0.0,meteohub,2013-07-14 08:45:00,
2013-07-14 04:50:00,71.8,70.9,29.97,South,170,0.0,0.0,97,0.00,,,0.00,0.0,meteohub,2013-07-14 08:50:00,
2013-07-14 04:55:00,71.8,70.9,29.97,South,170,0.0,0.0,97,0.00,,,0.00,0.0,meteohub,2013-07-14 08:55:00,
2013-07-14 05:00:00,71.8,70.9,29.98,South,170,0.0,0.0,97,0.00,,,0.00,0.0,meteohub,2013-07-14 09:00:00,
2013-07-14 05:05:00,71.8,70.9,29.98,South,169,0.0,0.0,97,0.00,,,0.00,0.0,meteohub,2013-07-14 09:05:00,
2013-07-14 05:10:00,71.8,70.9,29.98,South,170,0.0,0.0,97,0.00,,,0.00,0.0,meteohub,2013-07-14 09:10:00,
2013-07-14 05:15:00,71.6,70.7,29.98,South,170,0.0,0.0,97,0.00,,,0.00,0.0,meteohub,2013-07-14 09:15:00,
2013-07-14 05:20:00,71.4,70.5,29.98,South,170,0.0,0.0,97,0.00,,,0.00,0.0,meteohub,2013-07-14 09:20:00,
2013-07-14 05:25:00,71.4,70.5,29.98,South,170,0.0,0.0,97,0.00,,,0.00,0.0,meteohub,2013-07-14 09:25:00,
2013-07-14 05:30:00,71.4,70.5,29.98,South,170,0.0,0.0,97,0.00,,,0.00,0.0,meteohub,2013-07-14 09:30:00,
2013-07-14 05:35:00,71.6,70.7,29.98,South,169,0.0,0.0,97,0.00,,,0.00,0.0,meteohub,2013-07-14 09:35:00,
2013-07-14 05:40:00,71.8,70.9,29.98,South,170,0.0,0.0,97,0.00,,,0.00,0.0,meteohub,2013-07-14 09:40:00,
2013-07-14 05:45:00,72.0,71.4,29.98,South,170,0.0,0.0,98,0.00,,,0.00,0.0,meteohub,2013-07-14 09:45:00,
2013-07-14 05:50:00,72.0,71.4,29.98,South,170,0.0,0.0,98,0.00,,,0.00,0.0,meteohub,2013-07-14 09:50:00,
2013-07-14 05:55:00,71.8,70.9,29.99,South,170,0.0,0.0,97,0.00,,,0.00,0.0,meteohub,2013-07-14 09:55:00,
2013-07-14 06:00:00,71.8,70.9,29.99,South,170,0.0,0.0,97,0.00,,,0.00,0.0,meteohub,2013-07-14 10:00:00,
2013-07-14 06:05:00,71.8,71.2,29.99,South,170,0.0,0.0,98,0.00,,,0.00,0.0,meteohub,2013-07-14 10:05:00,
2013-07-14 06:10:00,72.0,71.4,29.99,South,170,0.0,0.0,98,0.00,,,0.00,0.0,meteohub,2013-07-14 10:10:00,
2013-07-14 06:15:00,72.0,71.4,29.99,South,169,0.0,0.0,98,0.00,,,0.00,0.0,meteohub,2013-07-14 10:15:00,
2013-07-14 06:20:00,72.1,71.2,29.99,South,169,0.0,2.0,97,0.00,,,0.00,0.0,meteohub,2013-07-14 10:20:00,
2013-07-14 06:25:00,72.3,71.8,29.99,South,170,0.0,2.0,98,0.02,,,0.02,0.0,meteohub,2013-07-14 10:25:00,
2013-07-14 06:30:00,72.9,72.3,29.99,South,170,0.0,2.0,98,0.07,,,0.07,0.0,meteohub,2013-07-14 10:30:00,
2013-07-14 06:35:00,72.9,72.3,29.99,South,170,1.0,1.0,98,0.08,,,0.07,0.0,meteohub,2013-07-14 10:35:00,
2013-07-14 06:40:00,73.2,72.7,29.99,North,0,0.0,5.0,98,0.08,,,0.08,0.0,meteohub,2013-07-14 10:40:00,
2013-07-14 06:45:00,73.2,72.7,30.00,North,0,0.0,5.0,98,0.08,,,0.08,0.0,meteohub,2013-07-14 10:45:00,
2013-07-14 06:50:00,73.2,72.7,30.00,North,0,0.0,5.0,98,0.08,,,0.08,0.0,meteohub,2013-07-14 10:50:00,
2013-07-14 06:55:00,73.2,72.7,30.00,North,0,0.0,0.0,98,0.08,,,0.08,5.0,meteohub,2013-07-14 10:55:00,
2013-07-14 07:00:00,73.0,72.5,30.00,North,0,0.0,0.0,98,0.08,,,0.08,9.0,meteohub,2013-07-14 11:00:00,
2013-07-14 07:05:00,73.0,72.5,30.00,North,0,0.0,0.0,98,0.08,,,0.08,11.0,meteohub,2013-07-14 11:05:00,
2013-07-14 07:10:00,73.0,72.5,30.00,North,0,0.0,0.0,98,0.08,,,0.08,12.0,meteohub,2013-07-14 11:10:00,
2013-07-14 07:15:00,73.0,72.5,30.00,North,0,0.0,0.0,98,0.08,,,0.08,16.0,meteohub,2013-07-14 11:15:00,
2013-07-14 07:20:00,73.2,72.7,30.01,North,0,0.0,1.0,98,0.07,,,0.08,19.0,meteohub,2013-07-14 11:20:00,
2013-07-14 07:25:00,73.2,72.7,30.01,North,0,0.0,1.0,98,0.02,,,0.08,21.0,meteohub,2013-07-14 11:25:00,
2013-07-14 07:30:00,73.2,72.7,30.01,North,0,0.0,0.0,98,0.01,,,0.08,25.0,meteohub,2013-07-14 11:30:00,
2013-07-14 07:35:00,73.4,72.9,30.01,North,0,0.0,0.0,98,0.00,,,0.08,30.0,meteohub,2013-07-14 11:35:00,
2013-07-14 07:40:00,73.4,72.9,30.01,North,0,0.0,0.0,98,0.00,,,0.08,37.0,meteohub,2013-07-14 11:40:00,
2013-07-14 07:45:00,73.4,72.9,30.01,North,0,0.0,0.0,98,0.00,,,0.08,60.0,meteohub,2013-07-14 11:45:00,
2013-07-14 07:50:00,73.6,73.0,30.01,North,0,0.0,0.0,98,0.00,,,0.08,40.0,meteohub,2013-07-14 11:50:00,
2013-07-14 07:55:00,73.6,73.0,30.01,North,0,0.0,0.0,98,0.00,,,0.08,74.0,meteohub,2013-07-14 11:55:00,
2013-07-14 08:00:00,73.8,73.2,30.01,North,0,0.0,0.0,98,0.00,,,0.08,35.0,meteohub,2013-07-14 12:00:00,
2013-07-14 08:05:00,73.9,73.4,30.02,North,0,0.0,0.0,98,0.00,,,0.08,28.0,meteohub,2013-07-14 12:05:00,
2013-07-14 08:10:00,73.9,73.4,30.02,North,0,0.0,0.0,98,0.00,,,0.08,37.0,meteohub,2013-07-14 12:10:00,
2013-07-14 08:15:00,73.9,73.4,30.02,North,0,0.0,0.0,98,0.00,,,0.08,54.0,meteohub,2013-07-14 12:15:00,
2013-07-14 08:20:00,74.1,73.6,30.02,North,0,0.0,0.0,98,0.00,,,0.08,69.0,meteohub,2013-07-14 12:20:00,
2013-07-14 08:25:00,74.1,73.6,30.03,North,0,0.0,0.0,98,0.00,,,0.08,79.0,meteohub,2013-07-14 12:25:00,
2013-07-14 08:30:00,74.5,73.9,30.02,North,0,0.0,0.0,98,0.00,,,0.08,76.0,meteohub,2013-07-14 12:30:00,
2013-07-14 08:35:00,74.7,74.1,30.03,North,0,0.0,0.0,98,0.00,,,0.08,77.0,meteohub,2013-07-14 12:35:00,
2013-07-14 08:40:00,74.7,74.1,30.03,North,0,0.0,0.0,98,0.00,,,0.08,107.0,meteohub,2013-07-14 12:40:00,
2013-07-14 08:45:00,74.8,74.3,30.03,North,0,0.0,0.0,98,0.00,,,0.08,146.0,meteohub,2013-07-14 12:45:00,
2013-07-14 08:50:00,75.2,74.7,30.03,North,0,0.0,0.0,98,0.00,,,0.08,181.0,meteohub,2013-07-14 12:50:00,
2013-07-14 08:55:00,75.6,75.0,30.03,North,0,0.0,1.0,98,0.00,,,0.08,207.0,meteohub,2013-07-14 12:55:00,
2013-07-14 09:00:00,75.7,75.2,30.04,North,0,0.0,1.0,98,0.00,,,0.08,258.0,meteohub,2013-07-14 13:00:00,
2013-07-14 09:05:00,75.9,75.4,30.04,North,0,2.0,4.0,98,0.00,,,0.08,257.0,meteohub,2013-07-14 13:05:00,
2013-07-14 09:10:00,76.5,75.9,30.04,North,0,0.0,4.0,98,0.00,,,0.08,330.0,meteohub,2013-07-14 13:10:00,
2013-07-14 09:15:00,76.6,76.1,30.04,North,0,0.0,4.0,98,0.00,,,0.08,192.0,meteohub,2013-07-14 13:15:00,
2013-07-14 09:20:00,77.0,76.1,30.04,North,0,0.0,3.0,97,0.00,,,0.08,229.0,meteohub,2013-07-14 13:20:00,
2013-07-14 09:25:00,77.4,76.5,30.04,North,0,1.0,3.0,97,0.00,,,0.08,330.0,meteohub,2013-07-14 13:25:00,
2013-07-14 09:30:00,77.7,76.8,30.04,North,0,0.0,1.0,97,0.00,,,0.08,262.0,meteohub,2013-07-14 13:30:00,
2013-07-14 09:35:00,78.1,76.8,30.04,North,0,0.0,2.0,96,0.01,,,0.08,213.0,meteohub,2013-07-14 13:35:00,
2013-07-14 09:40:00,78.3,77.0,30.04,North,0,0.0,2.0,96,0.01,,,0.09,153.0,meteohub,2013-07-14 13:40:00,
2013-07-14 09:45:00,78.6,77.4,30.05,North,0,0.0,2.0,96,0.01,,,0.09,206.0,meteohub,2013-07-14 13:45:00,
2013-07-14 09:50:00,78.8,77.2,30.05,East,83,1.0,3.0,95,0.02,,,0.10,594.0,meteohub,2013-07-14 13:50:00,
2013-07-14 09:55:00,79.2,77.4,30.05,ESE,122,1.0,7.0,94,0.02,,,0.10,348.0,meteohub,2013-07-14 13:55:00,
2013-07-14 10:00:00,79.5,77.4,30.05,SE,145,0.0,7.0,93,0.02,,,0.10,359.0,meteohub,2013-07-14 14:00:00,
2013-07-14 10:05:00,79.9,77.4,30.05,ESE,120,1.0,7.0,92,0.02,,,0.10,285.0,meteohub,2013-07-14 14:05:00,
2013-07-14 10:10:00,79.7,76.8,30.05,SSE,156,1.0,6.0,91,0.02,,,0.10,232.0,meteohub,2013-07-14 14:10:00,
2013-07-14 10:15:00,79.5,76.6,30.05,SE,146,0.0,6.0,91,0.02,,,0.10,214.0,meteohub,2013-07-14 14:15:00,
2013-07-14 10:20:00,79.5,76.6,30.05,SE,132,0.0,6.0,91,0.02,,,0.10,264.0,meteohub,2013-07-14 14:20:00,
2013-07-14 10:25:00,79.5,76.6,30.05,ENE,78,0.0,6.0,91,0.02,,,0.10,302.0,meteohub,2013-07-14 14:25:00,
2013-07-14 10:30:00,79.9,77.0,30.05,SSE,157,0.0,6.0,91,0.02,,,0.10,260.0,meteohub,2013-07-14 14:30:00,
2013-07-14 10:35:00,79.9,76.6,30.05,SSE,158,0.0,4.0,90,0.01,,,0.10,204.0,meteohub,2013-07-14 14:35:00,
2013-07-14 10:40:00,79.9,76.3,30.05,SSE,150,1.0,4.0,89,0.01,,,0.10,137.0,meteohub,2013-07-14 14:40:00,
2013-07-14 10:45:00,79.7,76.5,30.05,ESE,102,0.0,5.0,90,0.00,,,0.10,121.0,meteohub,2013-07-14 14:45:00,
2013-07-14 10:50:00,79.3,76.1,30.06,ENE,60,2.0,5.0,90,0.00,,,0.10,156.0,meteohub,2013-07-14 14:50:00,
2013-07-14 10:55:00,79.3,76.1,30.06,NE,38,0.0,3.0,90,0.00,,,0.10,204.0,meteohub,2013-07-14 14:55:00,
2013-07-14 11:00:00,79.3,76.1,30.06,NE,38,0.0,3.0,90,0.00,,,0.10,237.0,meteohub,2013-07-14 15:00:00,
2013-07-14 11:05:00,79.5,76.6,30.06,NE,54,0.0,3.0,91,0.00,,,0.10,278.0,meteohub,2013-07-14 15:05:00,
2013-07-14 11:10:00,79.5,76.3,30.06,East,80,0.0,5.0,90,0.00,,,0.10,306.0,meteohub,2013-07-14 15:10:00,
2013-07-14 11:15:00,79.9,76.6,30.06,East,81,1.0,5.0,90,0.00,,,0.10,281.0,meteohub,2013-07-14 15:15:00,
2013-07-14 11:20:00,79.9,76.6,30.06,ESE,111,0.0,5.0,90,0.00,,,0.10,334.0,meteohub,2013-07-14 15:20:00,
2013-07-14 11:25:00,80.1,76.5,30.06,ENE,57,0.0,5.0,89,0.00,,,0.10,223.0,meteohub,2013-07-14 15:25:00,
2013-07-14 11:30:00,80.1,76.5,30.07,SE,129,0.0,5.0,89,0.00,,,0.10,174.0,meteohub,2013-07-14 15:30:00,
2013-07-14 11:35:00,79.7,76.1,30.07,SE,130,0.0,4.0,89,0.03,,,0.13,202.0,meteohub,2013-07-14 15:35:00,
2013-07-14 11:40:00,79.3,76.1,30.07,SE,130,0.0,4.0,90,0.08,,,0.18,251.0,meteohub,2013-07-14 15:40:00,
2013-07-14 11:45:00,79.2,76.6,30.07,East,80,0.0,4.0,92,0.08,,,0.18,369.0,meteohub,2013-07-14 15:45:00,
2013-07-14 11:50:00,79.2,76.6,30.07,ESE,114,0.0,4.0,92,0.08,,,0.18,323.0,meteohub,2013-07-14 15:50:00,
2013-07-14 11:56:00,79.2,76.6,30.07,ESE,114,0.0,4.0,92,0.08,,,0.18,376.0,meteohub,2013-07-14 15:56:00,
2013-07-14 12:01:00,79.5,77.4,30.07,ESE,114,0.0,3.0,93,0.08,,,0.18,571.0,meteohub,2013-07-14 16:01:00,
2013-07-14 12:06:00,79.9,76.6,30.07,SE,124,0.0,2.0,90,0.08,,,0.18,445.0,meteohub,2013-07-14 16:06:00,
2013-07-14 12:11:00,80.2,77.0,30.07,SE,124,0.0,2.0,90,0.08,,,0.18,388.0,meteohub,2013-07-14 16:11:00,
2013-07-14 12:12:00,80.2,76.6,30.07,SE,124,1.0,2.0,89,0.08,,,0.18,359.0,meteohub,2013-07-14 16:12:00,
2013-07-14 12:17:00,80.1,75.9,30.07,East,94,0.0,3.0,87,0.08,,,0.18,236.0,meteohub,2013-07-14 16:17:00,
2013-07-14 12:22:00,80.1,76.1,30.08,ESE,102,1.0,5.0,88,0.08,,,0.18,301.0,meteohub,2013-07-14 16:22:00,
2013-07-14 12:27:00,80.1,76.1,30.08,SE,140,0.0,5.0,88,0.08,,,0.18,323.0,meteohub,2013-07-14 16:27:00,
2013-07-14 12:32:00,80.2,76.3,30.08,SE,140,0.0,5.0,88,0.08,,,0.18,327.0,meteohub,2013-07-14 16:32:00,
2013-07-14 12:37:00,80.2,76.3,30.08,ESE,122,0.0,5.0,88,0.04,,,0.18,230.0,meteohub,2013-07-14 16:37:00,
2013-07-14 12:42:00,80.1,76.1,30.08,ESE,109,0.0,3.0,88,0.00,,,0.18,111.0,meteohub,2013-07-14 16:42:00,
2013-07-14 12:47:00,79.5,75.9,30.08,NE,55,0.0,8.0,89,0.00,,,0.18,165.0,meteohub,2013-07-14 16:47:00,
2013-07-14 12:52:00,79.2,75.6,30.09,ESE,115,0.0,8.0,89,0.00,,,0.18,158.0,meteohub,2013-07-14 16:52:00,
2013-07-14 12:57:00,78.6,75.0,30.09,ENE,59,1.0,7.0,89,0.00,,,0.18,123.0,meteohub,2013-07-14 16:57:00,
2013-07-14 13:02:00,78.1,74.5,30.09,East,84,0.0,7.0,89,0.00,,,0.18,100.0,meteohub,2013-07-14 17:02:00,
2013-07-14 13:07:00,77.4,74.1,30.09,ESE,102,0.0,6.0,90,0.02,,,0.20,113.0,meteohub,2013-07-14 17:07:00,
2013-07-14 13:12:00,76.6,74.1,30.09,NE,56,5.0,6.0,92,0.03,,,0.21,156.0,meteohub,2013-07-14 17:12:00,
2013-07-14 13:17:00,75.9,73.8,30.09,NE,49,0.0,6.0,93,0.06,,,0.24,204.0,meteohub,2013-07-14 17:17:00,
2013-07-14 13:22:00,75.6,73.4,30.09,NE,39,0.0,5.0,93,0.07,,,0.25,299.0,meteohub,2013-07-14 17:22:00,
2013-07-14 13:27:00,75.4,73.2,30.09,NNE,33,0.0,5.0,93,0.07,,,0.25,348.0,meteohub,2013-07-14 17:27:00,
2013-07-14 13:32:00,75.2,73.4,30.09,NNE,32,2.0,5.0,94,0.07,,,0.25,545.0,meteohub,2013-07-14 17:32:00,
2013-07-14 13:37:00,75.6,73.8,30.09,NNE,32,2.0,5.0,94,0.07,,,0.25,367.0,meteohub,2013-07-14 17:37:00,
2013-07-14 13:42:00,75.7,73.9,30.10,NE,37,1.0,5.0,94,0.07,,,0.25,294.0,meteohub,2013-07-14 17:42:00,
2013-07-14 13:47:00,75.7,73.9,30.09,NNE,15,0.0,5.0,94,0.07,,,0.25,214.0,meteohub,2013-07-14 17:47:00,
2013-07-14 13:52:00,75.7,73.6,30.09,NNE,29,3.0,5.0,93,0.07,,,0.25,190.0,meteohub,2013-07-14 17:52:00,
2013-07-14 13:57:00,75.6,73.4,30.09,NNE,28,1.0,5.0,93,0.07,,,0.25,202.0,meteohub,2013-07-14 17:57:00,
2013-07-14 14:02:00,75.6,73.4,30.09,NNE,28,0.0,6.0,93,0.07,,,0.25,265.0,meteohub,2013-07-14 18:02:00,
2013-07-14 14:07:00,75.7,73.6,30.09,NNE,29,0.0,6.0,93,0.05,,,0.25,288.0,meteohub,2013-07-14 18:07:00,
2013-07-14 14:12:00,75.9,74.1,30.09,NNE,29,3.0,4.0,94,0.02,,,0.25,306.0,meteohub,2013-07-14 18:12:00,
2013-07-14 14:17:00,76.1,74.3,30.09,NNE,33,2.0,4.0,94,0.00,,,0.25,343.0,meteohub,2013-07-14 18:17:00,
2013-07-14 14:22:00,76.3,74.5,30.09,NE,37,0.0,5.0,94,0.00,,,0.25,359.0,meteohub,2013-07-14 18:22:00,
2013-07-14 14:27:00,76.6,74.8,30.09,ENE,57,0.0,5.0,94,0.00,,,0.25,392.0,meteohub,2013-07-14 18:27:00,
2013-07-14 14:32:00,77.2,75.6,30.09,NE,50,2.0,5.0,95,0.00,,,0.25,445.0,meteohub,2013-07-14 18:32:00,
2013-07-14 14:37:00,77.5,75.9,30.09,NNE,28,3.0,5.0,95,0.00,,,0.25,431.0,meteohub,2013-07-14 18:37:00,
2013-07-14 14:42:00,78.1,75.9,30.09,NE,51,0.0,6.0,93,0.00,,,0.25,276.0,meteohub,2013-07-14 18:42:00,
2013-07-14 14:47:00,78.1,75.9,30.09,NE,49,1.0,6.0,93,0.00,,,0.25,244.0,meteohub,2013-07-14 18:47:00,
2013-07-14 14:52:00,78.3,75.7,30.09,SE,142,0.0,8.0,92,0.00,,,0.25,274.0,meteohub,2013-07-14 18:52:00,
2013-07-14 14:57:00,78.4,75.9,30.09,NE,53,0.0,8.0,92,0.00,,,0.25,452.0,meteohub,2013-07-14 18:57:00,
2013-07-14 15:02:00,79.0,76.5,30.09,ENE,65,0.0,4.0,92,0.00,,,0.25,642.0,meteohub,2013-07-14 19:02:00,
2013-07-14 15:07:00,79.3,76.5,30.09,East,98,0.0,5.0,91,0.00,,,0.25,759.0,meteohub,2013-07-14 19:07:00,
2013-07-14 15:12:00,80.1,76.8,30.09,SE,128,4.0,7.0,90,0.00,,,0.25,330.0,meteohub,2013-07-14 19:12:00,
2013-07-14 15:17:00,80.1,76.8,30.08,ESE,103,2.0,7.0,90,0.00,,,0.25,192.0,meteohub,2013-07-14 19:17:00,
2013-07-14 15:22:00,78.6,74.8,30.09,NNE,19,2.0,7.0,88,0.01,,,0.26,90.0,meteohub,2013-07-14 19:22:00,
2013-07-14 15:27:00,77.0,73.8,30.09,ENE,68,0.0,9.0,90,0.15,,,0.30,62.0,meteohub,2013-07-14 19:27:00,
2013-07-14 15:32:00,75.9,73.4,30.09,ESE,109,1.0,9.0,92,0.21,,,0.46,76.0,meteohub,2013-07-14 19:32:00,
2013-07-14 15:37:00,75.4,73.2,30.08,ESE,109,0.0,8.0,93,0.40,,,0.65,190.0,meteohub,2013-07-14 19:37:00,
2013-07-14 15:42:00,75.4,73.6,30.08,ESE,109,0.0,6.0,94,0.40,,,0.65,197.0,meteohub,2013-07-14 19:42:00,
2013-07-14 15:47:00,75.4,73.6,30.08,ESE,109,0.0,3.0,94,0.40,,,0.65,204.0,meteohub,2013-07-14 19:47:00,
2013-07-14 15:52:00,75.6,73.8,30.07,ESE,109,0.0,1.0,94,0.40,,,0.65,487.0,meteohub,2013-07-14 19:52:00,
2013-07-14 15:57:00,76.3,74.7,30.07,ESE,109,0.0,1.0,95,0.40,,,0.65,710.0,meteohub,2013-07-14 19:57:00,
2013-07-14 16:02:00,76.8,75.2,30.07,ESE,109,0.0,0.0,95,0.40,,,0.65,297.0,meteohub,2013-07-14 20:02:00,
2013-07-14 16:07:00,77.4,75.7,30.06,ENE,74,0.0,0.0,95,0.40,,,0.65,1018.0,meteohub,2013-07-14 20:07:00,
2013-07-14 16:12:00,78.1,76.3,30.06,ENE,69,3.0,6.0,94,0.40,,,0.65,128.0,meteohub,2013-07-14 20:12:00,
2013-07-14 16:17:00,78.3,76.1,30.06,ESE,104,1.0,9.0,93,0.40,,,0.65,130.0,meteohub,2013-07-14 20:17:00,
2013-07-14 16:22:00,78.6,76.1,30.06,NNE,30,2.0,9.0,92,0.39,,,0.65,868.0,meteohub,2013-07-14 20:22:00,
2013-07-14 16:27:00,79.2,76.3,30.06,ESE,105,0.0,6.0,91,0.24,,,0.65,192.0,meteohub,2013-07-14 20:27:00,
2013-07-14 16:32:00,79.3,76.5,30.06,ESE,106,2.0,6.0,91,0.11,,,0.65,898.0,meteohub,2013-07-14 20:32:00,
2013-07-14 16:37:00,79.5,76.3,30.06,East,88,1.0,7.0,90,0.00,,,0.65,104.0,meteohub,2013-07-14 20:37:00,
2013-07-14 16:42:00,79.9,75.9,30.06,SE,141,1.0,7.0,88,0.00,,,0.65,761.0,meteohub,2013-07-14 20:42:00,
2013-07-14 16:47:00,80.2,76.1,30.06,ESE,113,2.0,7.0,87,0.00,,,0.65,343.0,meteohub,2013-07-14 20:47:00,
2013-07-14 16:52:00,80.4,76.1,30.06,ESE,123,0.0,8.0,87,0.00,,,0.65,306.0,meteohub,2013-07-14 20:52:00,
2013-07-14 16:57:00,81.0,76.6,30.06,East,98,0.0,10.0,87,0.00,,,0.65,325.0,meteohub,2013-07-14 20:57:00,
2013-07-14 17:02:00,81.0,76.5,30.06,NE,38,0.0,10.0,86,0.00,,,0.65,178.0,meteohub,2013-07-14 21:02:00,
2013-07-14 17:07:00,80.4,76.1,30.06,ENE,73,1.0,10.0,87,0.00,,,0.65,218.0,meteohub,2013-07-14 21:07:00,
2013-07-14 17:12:00,80.2,76.1,30.06,ESE,104,0.0,10.0,87,0.00,,,0.65,185.0,meteohub,2013-07-14 21:12:00,
2013-07-14 17:17:00,80.4,76.5,30.06,NNE,32,3.0,8.0,88,0.00,,,0.65,315.0,meteohub,2013-07-14 21:17:00,
2013-07-14 17:22:00,80.8,76.5,30.06,East,88,0.0,6.0,87,0.00,,,0.65,163.0,meteohub,2013-07-14 21:22:00,
2013-07-14 17:27:00,81.0,76.5,30.06,East,80,1.0,6.0,86,0.00,,,0.65,98.0,meteohub,2013-07-14 21:27:00,
2013-07-14 17:32:00,80.4,75.6,30.06,SE,129,4.0,9.0,85,0.00,,,0.65,107.0,meteohub,2013-07-14 21:32:00,
2013-07-14 17:37:00,80.1,75.6,30.06,ENE,57,3.0,9.0,86,0.00,,,0.65,93.0,meteohub,2013-07-14 21:37:00,
2013-07-14 17:42:00,80.2,75.7,30.06,NNE,24,3.0,9.0,86,0.00,,,0.65,77.0,meteohub,2013-07-14 21:42:00,
2013-07-14 17:47:00,80.4,75.6,30.06,ESE,115,5.0,6.0,85,0.00,,,0.65,144.0,meteohub,2013-07-14 21:47:00,
2013-07-14 17:52:00,80.4,75.6,30.06,NNE,30,0.0,11.0,85,0.00,,,0.65,188.0,meteohub,2013-07-14 21:52:00,
2013-07-14 17:57:00,80.8,75.9,30.06,SSE,164,3.0,11.0,85,0.00,,,0.65,171.0,meteohub,2013-07-14 21:57:00,
2013-07-14 18:02:00,80.8,75.6,30.06,ESE,109,0.0,11.0,84,0.00,,,0.65,167.0,meteohub,2013-07-14 22:02:00,
2013-07-14 18:07:00,80.8,75.6,30.06,ENE,61,0.0,10.0,84,0.00,,,0.65,220.0,meteohub,2013-07-14 22:07:00,
2013-07-14 18:13:00,81.0,75.7,30.06,SSE,152,0.0,10.0,84,0.00,,,0.65,178.0,meteohub,2013-07-14 22:13:00,
2013-07-14 18:18:00,81.1,75.9,30.06,ESE,105,1.0,6.0,84,0.00,,,0.65,142.0,meteohub,2013-07-14 22:18:00,
2013-07-14 18:23:00,80.4,75.2,30.06,ESE,111,0.0,9.0,84,0.00,,,0.65,70.0,meteohub,2013-07-14 22:23:00,
2013-07-14 18:28:00,80.1,75.2,30.06,East,99,7.0,11.0,85,0.00,,,0.65,81.0,meteohub,2013-07-14 22:28:00,
2013-07-14 18:33:00,79.9,75.0,30.05,SSE,154,0.0,11.0,85,0.00,,,0.65,74.0,meteohub,2013-07-14 22:33:00,
2013-07-14 18:38:00,80.1,75.2,30.05,ESE,115,0.0,10.0,85,0.00,,,0.65,153.0,meteohub,2013-07-14 22:38:00,
2013-07-14 18:43:00,80.4,75.2,30.05,SSE,164,7.0,10.0,84,0.00,,,0.65,139.0,meteohub,2013-07-14 22:43:00,
2013-07-14 18:48:00,80.2,74.7,30.05,SE,126,6.0,9.0,83,0.00,,,0.65,172.0,meteohub,2013-07-14 22:48:00,
2013-07-14 18:53:00,80.1,74.8,30.05,SE,144,4.0,10.0,84,0.00,,,0.65,86.0,meteohub,2013-07-14 22:53:00,
2013-07-14 18:58:00,79.7,75.2,30.05,East,92,0.0,10.0,86,0.00,,,0.65,56.0,meteohub,2013-07-14 22:58:00,
2013-07-14 19:03:00,79.2,75.0,30.06,ESE,117,3.0,9.0,87,0.00,,,0.65,35.0,meteohub,2013-07-14 23:03:00,
2013-07-14 19:08:00,78.8,75.0,30.05,NNE,30,5.0,8.0,88,0.00,,,0.65,42.0,meteohub,2013-07-14 23:08:00,
2013-07-14 19:13:00,78.6,75.0,30.05,East,83,3.0,8.0,89,0.00,,,0.65,49.0,meteohub,2013-07-14 23:13:00,
2013-07-14 19:18:00,78.6,75.0,30.06,NE,49,0.0,7.0,89,0.00,,,0.65,81.0,meteohub,2013-07-14 23:18:00,
2013-07-14 19:23:00,78.8,75.0,30.06,East,82,5.0,5.0,88,0.00,,,0.65,46.0,meteohub,2013-07-14 23:23:00,
2013-07-14 19:28:00,78.8,74.7,30.06,East,93,3.0,7.0,87,0.00,,,0.65,42.0,meteohub,2013-07-14 23:28:00,
2013-07-14 19:33:00,78.8,74.7,30.06,ESE,118,2.0,9.0,87,0.00,,,0.65,42.0,meteohub,2013-07-14 23:33:00,
2013-07-14 19:38:00,79.0,74.8,30.06,South,171,1.0,9.0,87,0.00,,,0.65,32.0,meteohub,2013-07-14 23:38:00,
2013-07-14 19:43:00,79.0,74.8,30.06,ESE,113,0.0,9.0,87,0.00,,,0.65,35.0,meteohub,2013-07-14 23:43:00,
2013-07-14 19:48:00,78.8,75.0,30.06,East,86,1.0,7.0,88,0.00,,,0.65,35.0,meteohub,2013-07-14 23:48:00,
2013-07-14 19:53:00,78.6,74.8,30.07,NE,42,0.0,7.0,88,0.00,,,0.65,28.0,meteohub,2013-07-14 23:53:00,
2013-07-14 19:58:00,78.4,74.7,30.07,East,99,1.0,8.0,88,0.00,,,0.65,19.0,meteohub,2013-07-14 23:58:00,
2013-07-14 20:03:00,78.3,74.5,30.08,East,99,0.0,8.0,88,0.00,,,0.65,18.0,meteohub,2013-07-15 00:03:00,
2013-07-14 20:08:00,78.1,74.5,30.07,East,101,0.0,8.0,89,0.00,,,0.65,14.0,meteohub,2013-07-15 00:08:00,
2013-07-14 20:13:00,77.7,74.3,30.08,ESE,105,0.0,4.0,89,0.00,,,0.65,12.0,meteohub,2013-07-15 00:13:00,
2013-07-14 20:18:00,77.7,74.3,30.08,NE,38,0.0,2.0,89,0.00,,,0.65,11.0,meteohub,2013-07-15 00:18:00,
2013-07-14 20:23:00,77.5,74.1,30.08,NE,40,0.0,3.0,89,0.00,,,0.65,7.0,meteohub,2013-07-15 00:23:00,
2013-07-14 20:28:00,77.4,73.9,30.08,NE,38,0.0,3.0,89,0.00,,,0.65,5.0,meteohub,2013-07-15 00:28:00,
2013-07-14 20:33:00,77.2,73.8,30.08,NE,40,0.0,1.0,89,0.00,,,0.65,0.0,meteohub,2013-07-15 00:33:00,
2013-07-14 20:38:00,77.0,73.6,30.08,NE,39,0.0,1.0,89,0.00,,,0.65,0.0,meteohub,2013-07-15 00:38:00,
2013-07-14 20:43:00,76.8,73.6,30.08,NE,38,0.0,1.0,90,0.00,,,0.65,0.0,meteohub,2013-07-15 00:43:00,
2013-07-14 20:48:00,76.6,73.4,30.09,NE,39,0.0,1.0,90,0.00,,,0.65,0.0,meteohub,2013-07-15 00:48:00,
2013-07-14 20:53:00,76.5,73.6,30.09,NE,39,0.0,0.0,91,0.00,,,0.65,0.0,meteohub,2013-07-15 00:53:00,
2013-07-14 20:58:00,76.3,73.4,30.09,NE,38,0.0,0.0,91,0.00,,,0.65,0.0,meteohub,2013-07-15 00:58:00,
2013-07-14 21:03:00,76.1,73.2,30.09,NE,38,0.0,1.0,91,0.00,,,0.65,0.0,meteohub,2013-07-15 01:03:00,
2013-07-14 21:08:00,75.9,73.0,30.09,NE,39,0.0,1.0,91,0.00,,,0.65,0.0,meteohub,2013-07-15 01:08:00,
2013-07-14 21:13:00,75.9,73.4,30.09,NE,40,0.0,0.0,92,0.00,,,0.65,0.0,meteohub,2013-07-15 01:13:00,
2013-07-14 21:18:00,75.7,73.2,30.09,NE,38,0.0,0.0,92,0.00,,,0.65,0.0,meteohub,2013-07-15 01:18:00,
2013-07-14 21:23:00,75.6,73.0,30.10,NE,39,0.0,0.0,92,0.00,,,0.65,0.0,meteohub,2013-07-15 01:23:00,
2013-07-14 21:28:00,75.4,72.9,30.10,NE,40,0.0,0.0,92,0.00,,,0.65,0.0,meteohub,2013-07-15 01:28:00,
2013-07-14 21:33:00,75.0,72.9,30.10,NE,38,0.0,0.0,93,0.00,,,0.65,0.0,meteohub,2013-07-15 01:33:00,
2013-07-14 21:38:00,74.8,72.7,30.10,NE,39,0.0,0.0,93,0.00,,,0.65,0.0,meteohub,2013-07-15 01:38:00,
2013-07-14 21:43:00,74.7,72.5,30.11,NE,40,0.0,0.0,93,0.00,,,0.65,0.0,meteohub,2013-07-15 01:43:00,
2013-07-14 21:48:00,74.7,72.9,30.11,NE,40,0.0,0.0,94,0.00,,,0.65,0.0,meteohub,2013-07-15 01:48:00,
2013-07-14 21:53:00,74.7,72.9,30.11,NE,39,0.0,0.0,94,0.00,,,0.65,0.0,meteohub,2013-07-15 01:53:00,
2013-07-14 21:58:00,74.5,72.7,30.11,NE,40,0.0,0.0,94,0.00,,,0.65,0.0,meteohub,2013-07-15 01:58:00,
2013-07-14 22:04:00,74.5,73.0,30.12,NE,39,0.0,0.0,95,0.00,,,0.65,0.0,meteohub,2013-07-15 02:04:00,
2013-07-14 22:08:00,74.3,72.9,30.12,NE,39,0.0,0.0,95,0.00,,,0.65,0.0,meteohub,2013-07-15 02:08:00,
2013-07-14 22:13:00,74.1,72.7,30.12,NE,40,0.0,0.0,95,0.00,,,0.65,0.0,meteohub,2013-07-15 02:13:00,
2013-07-14 22:18:00,74.1,72.7,30.12,NE,40,0.0,0.0,95,0.00,,,0.65,0.0,meteohub,2013-07-15 02:18:00,
2013-07-14 22:24:00,74.1,72.7,30.12,NE,38,0.0,0.0,95,0.00,,,0.65,0.0,meteohub,2013-07-15 02:24:00,
2013-07-14 22:29:00,73.9,72.5,30.12,NE,40,0.0,1.0,95,0.00,,,0.65,0.0,meteohub,2013-07-15 02:29:00,
2013-07-14 22:34:00,73.9,72.5,30.12,NE,40,0.0,1.0,95,0.00,,,0.65,0.0,meteohub,2013-07-15 02:34:00,
2013-07-14 22:39:00,73.9,72.5,30.12,NE,40,0.0,1.0,95,0.00,,,0.65,0.0,meteohub,2013-07-15 02:39:00,
2013-07-14 22:44:00,73.9,72.5,30.12,NE,40,0.0,1.0,95,0.00,,,0.65,0.0,meteohub,2013-07-15 02:44:00,
2013-07-14 22:49:00,73.9,72.5,30.12,NE,39,0.0,1.0,95,0.00,,,0.65,0.0,meteohub,2013-07-15 02:49:00,
2013-07-14 22:54:00,73.9,72.5,30.12,NE,40,0.0,0.0,95,0.00,,,0.65,0.0,meteohub,2013-07-15 02:54:00,
2013-07-14 22:59:00,73.9,72.5,30.12,NE,39,0.0,0.0,95,0.00,,,0.65,0.0,meteohub,2013-07-15 02:59:00,
2013-07-14 23:04:00,73.9,72.5,30.12,NE,40,0.0,0.0,95,0.00,,,0.65,0.0,meteohub,2013-07-15 03:04:00,
2013-07-14 23:09:00,73.9,72.5,30.12,NE,38,0.0,0.0,95,0.00,,,0.65,0.0,meteohub,2013-07-15 03:09:00,
2013-07-14 23:14:00,73.9,72.5,30.12,NE,39,0.0,0.0,95,0.00,,,0.65,0.0,meteohub,2013-07-15 03:14:00,
2013-07-14 23:19:00,73.9,72.5,30.12,NE,40,0.0,0.0,95,0.00,,,0.65,0.0,meteohub,2013-07-15 03:19:00,
2013-07-14 23:24:00,73.9,72.5,30.12,NE,40,0.0,0.0,95,0.00,,,0.65,0.0,meteohub,2013-07-15 03:24:00,
2013-07-14 23:29:00,73.9,72.5,30.12,NE,39,0.0,0.0,95,0.00,,,0.65,0.0,meteohub,2013-07-15 03:29:00,
2013-07-14 23:34:00,73.8,72.3,30.12,NE,40,0.0,0.0,95,0.00,,,0.65,0.0,meteohub,2013-07-15 03:34:00,
2013-07-14 23:39:00,73.8,72.3,30.12,NE,40,0.0,0.0,95,0.00,,,0.65,0.0,meteohub,2013-07-15 03:39:00,
2013-07-14 23:44:00,73.8,72.5,30.12,NE,40,0.0,0.0,96,0.00,,,0.65,0.0,meteohub,2013-07-15 03:44:00,
2013-07-14 23:49:00,73.8,72.5,30.12,NE,40,0.0,0.0,96,0.00,,,0.65,0.0,meteohub,2013-07-15 03:49:00,
2013-07-14 23:54:00,73.8,72.5,30.12,NE,39,0.0,0.0,96,0.00,,,0.65,0.0,meteohub,2013-07-15 03:54:00,
2013-07-14 23:59:00,73.6,72.3,30.12,NE,39,0.0,0.0,96,0.00,,,0.65,0.0,meteohub,2013-07-15 03:59:00,